createdAt,value
2022-09-28T00:01:08.898Z,9.75
2022-09-28T00:03:36.048Z,9.41
2022-09-28T00:06:04.769Z,9.41
2022-09-28T00:08:31.763Z,9.63
2022-09-28T00:10:58.585Z,9.58
2022-09-28T00:13:25.445Z,9.28
2022-09-28T00:16:01.846Z,9.18
2022-09-28T00:18:28.560Z,9.24
2022-09-28T00:21:15.629Z,9.21
2022-09-28T00:24:01.551Z,9.21
2022-09-28T00:26:29.734Z,9.18
2022-09-28T00:29:00.777Z,9.32
2022-09-28T00:31:30.249Z,9.45
2022-09-28T00:33:57.211Z,9.37
2022-09-28T00:36:30.824Z,9.49
2022-09-28T00:38:59.492Z,9.36
2022-09-28T00:41:27.891Z,9.47
2022-09-28T00:44:15.232Z,9.67
2022-09-28T00:46:42.035Z,9.42
2022-09-28T00:49:11.748Z,9.27
2022-09-28T00:51:38.881Z,9.42
2022-09-28T00:54:07.730Z,9.51
2022-09-28T00:56:36.695Z,9.60
2022-09-28T00:59:04.796Z,9.50
2022-09-28T01:01:31.665Z,9.63
2022-09-28T01:03:59.107Z,9.19
2022-09-28T01:06:29.140Z,9.27
2022-09-28T01:08:58.431Z,9.30
2022-09-28T01:11:25.851Z,9.09
2022-09-28T01:13:54.616Z,8.90
2022-09-28T01:16:42.199Z,9.34
2022-09-28T01:19:34.133Z,9.41
2022-09-28T01:22:23.255Z,9.34
2022-09-28T01:24:56.798Z,9.56
2022-09-28T01:27:29.089Z,9.25
2022-09-28T01:30:06.699Z,9.58
2022-09-28T01:32:58.938Z,9.16
2022-09-28T01:35:31.473Z,9.31
2022-09-28T01:38:17.589Z,9.33
2022-09-28T01:40:46.473Z,9.51
2022-09-28T01:43:27.263Z,9.47
2022-09-28T01:46:02.344Z,9.61
2022-09-28T01:48:54.013Z,9.68
2022-09-28T01:51:33.577Z,9.48
2022-09-28T01:54:11.056Z,9.28
2022-09-28T01:56:42.033Z,9.30
2022-09-28T01:59:13.884Z,9.43
2022-09-28T02:01:53.978Z,9.58
2022-09-28T02:04:26.224Z,9.63
2022-09-28T02:06:56.973Z,9.62
2022-09-28T02:09:38.540Z,9.32
2022-09-28T02:12:18.646Z,9.61
2022-09-28T02:14:47.195Z,9.39
2022-09-28T02:17:16.195Z,9.47
2022-09-28T02:19:43.061Z,9.46
2022-09-28T02:22:23.522Z,9.47
2022-09-28T02:24:59.056Z,9.48
2022-09-28T02:27:38.224Z,9.66
2022-09-28T02:30:06.069Z,9.70
2022-09-28T02:32:33.898Z,9.54
2022-09-28T02:35:00.576Z,9.67
2022-09-28T02:37:27.974Z,9.62
2022-09-28T02:39:54.648Z,9.78
2022-09-28T02:42:25.833Z,9.72
2022-09-28T02:45:23.108Z,9.84
2022-09-28T02:48:43.030Z,9.64
2022-09-28T02:51:24.050Z,9.89
2022-09-28T02:53:56.104Z,9.89
2022-09-28T02:56:44.391Z,9.71
2022-09-28T02:59:33.205Z,9.67
2022-09-28T03:02:04.703Z,9.41
2022-09-28T03:04:39.956Z,9.58
2022-09-28T03:07:13.376Z,9.49
2022-09-28T03:09:46.697Z,9.63
2022-09-28T03:12:14.001Z,9.74
2022-09-28T03:14:40.636Z,9.58
2022-09-28T03:17:07.232Z,9.79
2022-09-28T03:19:34.791Z,9.80
2022-09-28T03:22:01.843Z,9.90
2022-09-28T03:24:28.473Z,9.60
2022-09-28T03:26:55.105Z,9.69
2022-09-28T03:29:21.727Z,9.83
2022-09-28T03:31:49.226Z,9.72
2022-09-28T03:34:15.994Z,9.76
2022-09-28T03:36:43.058Z,9.76
2022-09-28T03:39:09.742Z,9.86
2022-09-28T03:41:36.439Z,9.89
2022-09-28T03:44:03.365Z,9.53
2022-09-28T03:46:30.045Z,9.48
2022-09-28T03:48:58.449Z,9.65
2022-09-28T03:51:25.529Z,9.64
2022-09-28T03:53:52.226Z,9.50
2022-09-28T03:56:18.892Z,9.62
2022-09-28T03:58:45.483Z,9.65
2022-09-28T04:01:16.792Z,9.44
2022-09-28T04:03:44.623Z,9.19
2022-09-28T04:06:11.880Z,9.62
2022-09-28T04:08:38.519Z,9.63
2022-09-28T04:11:05.487Z,9.50
2022-09-28T04:13:32.159Z,9.56
2022-09-28T04:16:01.089Z,9.61
2022-09-28T04:18:28.122Z,9.62
2022-09-28T04:21:06.948Z,9.58
2022-09-28T04:23:37.557Z,9.63
2022-09-28T04:26:05.920Z,9.51
2022-09-28T04:28:51.921Z,9.51
2022-09-28T04:31:20.912Z,9.31
2022-09-28T04:33:47.655Z,9.56
2022-09-28T04:36:14.322Z,9.33
2022-09-28T04:38:52.939Z,9.61
2022-09-28T04:41:22.316Z,9.75
2022-09-28T04:43:49.719Z,9.51
2022-09-28T04:46:16.688Z,9.72
2022-09-28T04:48:43.374Z,9.64
2022-09-28T04:51:10.038Z,9.29
2022-09-28T04:53:36.694Z,9.52
2022-09-28T04:56:07.689Z,9.50
2022-09-28T04:58:37.696Z,9.38
2022-09-28T05:01:07.128Z,9.36
2022-09-28T05:03:34.357Z,9.60
2022-09-28T05:06:01.712Z,9.40
2022-09-28T05:08:28.874Z,9.29
2022-09-28T05:11:03.720Z,9.58
2022-09-28T05:13:31.020Z,9.64
2022-09-28T05:16:03.054Z,9.69
2022-09-28T05:18:31.860Z,9.66
2022-09-28T05:20:58.517Z,9.71
2022-09-28T05:23:25.180Z,9.56
2022-09-28T05:25:51.784Z,9.72
2022-09-28T05:28:25.413Z,9.52
2022-09-28T05:30:52.365Z,9.61
2022-09-28T05:33:19.098Z,9.67
2022-09-28T05:35:47.929Z,9.86
2022-09-28T05:38:17.707Z,9.62
2022-09-28T05:40:44.334Z,9.43
2022-09-28T05:43:10.975Z,9.61
2022-09-28T05:45:37.657Z,9.79
2022-09-28T05:48:04.579Z,9.75
2022-09-28T05:50:31.316Z,9.74
2022-09-28T05:53:02.820Z,9.66
2022-09-28T05:55:29.969Z,9.80
2022-09-28T05:58:00.131Z,9.76
2022-09-28T06:00:29.085Z,9.81
2022-09-28T06:02:57.401Z,9.74
2022-09-28T06:05:25.059Z,9.95
2022-09-28T06:07:52.904Z,9.49
2022-09-28T06:10:19.819Z,9.73
2022-09-28T06:12:47.997Z,9.94
2022-09-28T06:15:15.605Z,10.10
2022-09-28T06:17:43.856Z,10.12
2022-09-28T06:20:11.729Z,9.88
2022-09-28T06:22:39.014Z,9.86
2022-09-28T06:25:06.971Z,9.97
2022-09-28T06:27:34.468Z,9.98
2022-09-28T06:30:02.319Z,10.13
2022-09-28T06:32:31.915Z,10.25
2022-09-28T06:34:58.540Z,10.28
2022-09-28T06:37:26.174Z,10.17
2022-09-28T06:39:53.550Z,10.24
2022-09-28T06:42:20.209Z,10.19
2022-09-28T06:44:47.180Z,10.29
2022-09-28T06:47:15.058Z,10.30
2022-09-28T06:49:41.681Z,10.39
2022-09-28T06:52:08.349Z,10.51
2022-09-28T06:54:35.112Z,10.56
2022-09-28T06:57:02.300Z,10.54
2022-09-28T06:59:30.036Z,10.57
2022-09-28T07:01:56.768Z,10.55
2022-09-28T07:04:23.394Z,10.48
2022-09-28T07:06:50.716Z,10.51
2022-09-28T07:09:31.613Z,10.52
2022-09-28T07:11:59.726Z,10.55
2022-09-28T07:14:44.194Z,10.47
2022-09-28T07:17:14.468Z,10.43
2022-09-28T07:19:41.479Z,10.39
2022-09-28T07:22:08.082Z,10.49
2022-09-28T07:24:34.709Z,10.46
2022-09-28T07:27:04.557Z,10.53
2022-09-28T07:29:31.349Z,10.54
2022-09-28T07:31:58.039Z,10.61
2022-09-28T07:34:24.661Z,10.63
2022-09-28T07:36:58.930Z,10.57
2022-09-28T07:39:25.640Z,10.58
2022-09-28T07:41:56.730Z,10.64
2022-09-28T07:44:26.385Z,10.66
2022-09-28T07:46:53.012Z,10.65
2022-09-28T07:49:19.691Z,10.70
2022-09-28T07:51:46.406Z,10.76
2022-09-28T07:54:13.002Z,10.75
2022-09-28T07:56:39.616Z,10.76
2022-09-28T07:59:06.204Z,10.79
2022-09-28T08:01:32.880Z,10.78
2022-09-28T08:03:59.565Z,10.86
2022-09-28T08:06:26.222Z,10.92
2022-09-28T08:08:56.311Z,10.91
2022-09-28T08:11:22.981Z,10.85
2022-09-28T08:13:50.996Z,10.87
2022-09-28T08:16:17.765Z,10.84
2022-09-28T08:18:44.481Z,10.86
2022-09-28T08:21:29.364Z,10.83
2022-09-28T08:23:56.406Z,10.87
2022-09-28T08:26:23.033Z,10.92
2022-09-28T08:28:50.196Z,10.91
2022-09-28T08:31:17.024Z,10.90
2022-09-28T08:33:43.703Z,10.79
2022-09-28T08:36:10.634Z,10.88
2022-09-28T08:38:37.470Z,10.89
2022-09-28T08:41:39.309Z,10.98
2022-09-28T08:44:15.262Z,10.91
2022-09-28T08:46:45.797Z,10.88
2022-09-28T08:49:25.666Z,10.93
2022-09-28T08:51:55.357Z,10.98
2022-09-28T08:54:37.473Z,10.95
2022-09-28T08:57:12.282Z,11.05
2022-09-28T08:59:58.502Z,11.11
2022-09-28T09:02:36.814Z,11.00
2022-09-28T09:05:06.281Z,11.12
2022-09-28T09:07:47.982Z,11.22
2022-09-28T09:10:28.699Z,11.04
2022-09-28T09:13:11.493Z,11.13
2022-09-28T09:15:38.976Z,11.29
2022-09-28T09:18:16.615Z,11.21
2022-09-28T09:21:07.967Z,11.20
2022-09-28T09:23:39.409Z,11.33
2022-09-28T09:26:21.869Z,11.39
2022-09-28T09:29:13.727Z,11.42
2022-09-28T09:32:09.642Z,11.49
2022-09-28T09:35:13.631Z,11.46
2022-09-28T09:38:00.290Z,11.50
2022-09-28T09:40:58.226Z,11.59
2022-09-28T09:43:43.213Z,11.60
2022-09-28T09:46:20.131Z,11.71
2022-09-28T09:48:50.212Z,11.68
2022-09-28T09:51:39.018Z,11.73
2022-09-28T09:54:30.316Z,11.68
2022-09-28T09:57:03.727Z,11.76
2022-09-28T09:59:33.807Z,11.73
2022-09-28T10:02:12.578Z,11.66
2022-09-28T10:04:43.340Z,11.59
2022-09-28T10:07:16.197Z,11.60
2022-09-28T10:09:46.040Z,11.62
2022-09-28T10:12:16.508Z,11.58
2022-09-28T10:14:43.820Z,11.51
2022-09-28T10:17:12.716Z,11.34
2022-09-28T10:19:39.333Z,11.32
2022-09-28T10:22:06.543Z,11.46
2022-09-28T10:24:39.676Z,11.41
2022-09-28T10:27:08.814Z,11.45
2022-09-28T10:29:44.822Z,11.39
2022-09-28T10:32:36.533Z,11.32
2022-09-28T10:35:30.187Z,11.30
2022-09-28T10:38:03.357Z,11.17
2022-09-28T10:40:40.889Z,11.07
2022-09-28T10:43:31.238Z,11.03
2022-09-28T10:46:14.866Z,11.03
2022-09-28T10:49:18.189Z,10.93
2022-09-28T10:51:49.876Z,11.01
2022-09-28T10:54:21.729Z,11.03
2022-09-28T10:56:49.906Z,10.93
2022-09-28T10:59:28.853Z,11.07
2022-09-28T11:02:12.952Z,10.94
2022-09-28T11:04:44.973Z,10.91
2022-09-28T11:07:28.685Z,11.04
2022-09-28T11:09:55.481Z,11.10
2022-09-28T11:12:24.919Z,11.08
2022-09-28T11:15:06.089Z,11.10
2022-09-28T11:17:42.054Z,11.10
2022-09-28T11:20:34.636Z,11.14
2022-09-28T11:23:24.215Z,11.13
2022-09-28T11:26:05.800Z,11.17
2022-09-28T11:28:34.595Z,11.10
2022-09-28T11:31:02.041Z,11.24
2022-09-28T11:33:31.570Z,11.35
2022-09-28T11:36:13.038Z,11.19
2022-09-28T11:38:47.661Z,11.11
2022-09-28T11:41:32.704Z,11.26
2022-09-28T11:44:05.231Z,11.40
2022-09-28T11:46:34.864Z,11.40
2022-09-28T11:49:16.215Z,11.43
2022-09-28T11:51:44.069Z,11.48
2022-09-28T11:54:23.248Z,11.51
2022-09-28T11:56:50.588Z,11.46
2022-09-28T11:59:52.780Z,11.57
2022-09-28T12:02:26.219Z,11.66
2022-09-28T12:04:54.880Z,11.67
2022-09-28T12:07:34.461Z,11.67
2022-09-28T12:10:19.648Z,11.78
2022-09-28T12:12:50.624Z,11.79
2022-09-28T12:15:24.375Z,11.75
2022-09-28T12:17:58.528Z,11.71
2022-09-28T12:20:31.013Z,11.73
2022-09-28T12:23:27.030Z,11.77
2022-09-28T12:25:59.732Z,11.70
2022-09-28T12:28:40.054Z,11.61
2022-09-28T12:31:13.385Z,11.59
2022-09-28T12:33:41.938Z,11.31
2022-09-28T12:36:30.413Z,11.28
2022-09-28T12:39:21.717Z,11.38
2022-09-28T12:41:57.649Z,11.30
2022-09-28T12:44:45.042Z,11.12
2022-09-28T12:47:50.088Z,11.31
2022-09-28T12:50:39.906Z,11.38
2022-09-28T12:53:14.144Z,11.40
2022-09-28T12:55:43.321Z,11.45
2022-09-28T12:58:34.372Z,11.37
2022-09-28T13:01:32.161Z,11.33
2022-09-28T13:04:04.704Z,11.27
2022-09-28T13:06:33.820Z,11.19
2022-09-28T13:09:20.355Z,11.13
2022-09-28T13:12:04.668Z,11.11
2022-09-28T13:15:02.043Z,11.15
2022-09-28T13:17:40.526Z,11.13
2022-09-28T13:20:30.264Z,10.99
2022-09-28T13:23:19.970Z,10.98
2022-09-28T13:25:53.281Z,11.04
2022-09-28T13:28:26.262Z,11.04
2022-09-28T13:30:55.460Z,11.03
2022-09-28T13:33:30.981Z,11.03
2022-09-28T13:35:57.600Z,10.78
2022-09-28T13:38:24.314Z,10.88
2022-09-28T13:41:06.462Z,10.94
2022-09-28T13:43:35.769Z,10.74
2022-09-28T13:46:20.600Z,10.74
2022-09-28T13:48:54.872Z,10.83
2022-09-28T13:51:42.146Z,10.84
2022-09-28T13:54:15.798Z,10.84
2022-09-28T13:57:03.213Z,10.60
2022-09-28T13:59:30.562Z,10.62
2022-09-28T14:02:06.875Z,10.71
2022-09-28T14:05:00.175Z,10.64
2022-09-28T14:10:21.008Z,10.39
2022-09-28T14:12:47.673Z,10.45
2022-09-28T14:15:29.265Z,10.49
2022-09-28T14:18:05.473Z,10.23
2022-09-28T14:20:32.803Z,10.34
2022-09-28T14:23:11.059Z,10.46
2022-09-28T14:26:13.382Z,10.41
2022-09-28T14:28:56.889Z,10.43
2022-09-28T14:31:28.733Z,10.34
2022-09-28T14:34:01.270Z,10.24
2022-09-28T14:36:54.754Z,10.28
2022-09-28T14:39:45.565Z,10.16
2022-09-28T14:42:18.973Z,10.27
2022-09-28T14:45:05.283Z,10.31
2022-09-28T14:47:41.681Z,10.29
2022-09-28T14:50:20.202Z,10.31
2022-09-28T14:52:51.009Z,10.23
2022-09-28T14:55:23.673Z,10.30
2022-09-28T14:57:56.747Z,10.30
2022-09-28T15:00:29.365Z,10.33
2022-09-28T15:03:00.453Z,10.37
2022-09-28T15:05:36.051Z,10.24
2022-09-28T15:08:02.759Z,10.30
2022-09-28T15:10:33.575Z,10.32
2022-09-28T15:13:06.506Z,10.30
2022-09-28T15:15:38.714Z,10.35
2022-09-28T15:18:18.929Z,10.40
2022-09-28T15:20:47.130Z,10.38
2022-09-28T15:23:36.500Z,10.34
2022-09-28T15:26:04.582Z,10.36
2022-09-28T15:28:31.256Z,10.32
2022-09-28T15:31:02.653Z,10.37
2022-09-28T15:33:52.663Z,10.30
2022-09-28T15:36:25.521Z,10.33
2022-09-28T15:38:59.501Z,10.33
2022-09-28T15:41:26.632Z,10.34
2022-09-28T15:44:11.489Z,10.31
2022-09-28T15:46:40.213Z,10.19
2022-09-28T15:49:08.649Z,10.08
2022-09-28T15:51:47.439Z,10.13
2022-09-28T15:54:18.317Z,10.15
2022-09-28T15:57:02.708Z,10.18
2022-09-28T15:59:34.807Z,10.13
2022-09-28T16:02:13.255Z,10.15
2022-09-28T16:04:48.198Z,10.22
2022-09-28T16:07:35.761Z,10.19
2022-09-28T16:10:14.152Z,10.26
2022-09-28T16:12:49.420Z,10.20
2022-09-28T16:15:20.436Z,10.11
2022-09-28T16:18:13.058Z,10.07
2022-09-28T16:20:40.821Z,10.02
2022-09-28T16:23:16.270Z,10.08
2022-09-28T16:25:55.078Z,10.14
2022-09-28T16:28:48.962Z,10.13
2022-09-28T16:31:15.606Z,10.18
2022-09-28T16:33:54.160Z,10.14
2022-09-28T16:36:25.068Z,10.14
2022-09-28T16:38:54.429Z,10.16
2022-09-28T16:41:23.675Z,10.05
2022-09-28T16:43:51.856Z,10.04
2022-09-28T16:46:18.930Z,9.98
2022-09-28T16:48:49.799Z,10.00
2022-09-28T16:51:22.074Z,10.02
2022-09-28T16:54:07.746Z,9.97
2022-09-28T16:56:35.442Z,9.95
2022-09-28T16:59:02.428Z,10.06
2022-09-28T17:01:31.924Z,9.99
2022-09-28T17:03:58.774Z,9.95
2022-09-28T17:06:25.581Z,9.96
2022-09-28T17:08:52.748Z,9.96
2022-09-28T17:11:24.628Z,9.98
2022-09-28T17:13:52.010Z,9.94
2022-09-28T17:16:37.133Z,9.94
2022-09-28T17:19:21.142Z,9.87
2022-09-28T17:21:48.242Z,9.84
2022-09-28T17:24:14.925Z,9.83
2022-09-28T17:26:44.501Z,9.65
2022-09-28T17:29:14.692Z,9.47
2022-09-28T17:31:45.781Z,9.51
2022-09-28T17:34:15.267Z,9.61
2022-09-28T17:36:42.837Z,9.60
2022-09-28T17:39:15.505Z,9.66
2022-09-28T17:41:42.162Z,9.81
2022-09-28T17:44:09.093Z,9.78
2022-09-28T17:46:37.861Z,9.71
2022-09-28T17:49:06.182Z,9.68
2022-09-28T17:51:35.004Z,9.66
2022-09-28T17:54:01.904Z,9.56
2022-09-28T17:56:32.070Z,9.50
2022-09-28T17:59:01.237Z,9.53
2022-09-28T18:01:34.110Z,9.55
2022-09-28T18:04:02.285Z,9.49
2022-09-28T18:06:29.137Z,9.47
2022-09-28T18:08:55.773Z,9.47
2022-09-28T18:11:22.691Z,9.47
2022-09-28T18:13:49.297Z,9.42
2022-09-28T18:16:16.115Z,9.46
2022-09-28T18:18:42.828Z,9.53
2022-09-28T18:21:09.555Z,9.58
2022-09-28T18:23:37.667Z,9.59
2022-09-28T18:26:05.535Z,9.61
2022-09-28T18:28:32.125Z,9.58
2022-09-28T18:30:59.027Z,9.58
2022-09-28T18:33:25.766Z,9.55
2022-09-28T18:35:53.922Z,9.59
2022-09-28T18:38:20.792Z,9.35
2022-09-28T18:40:48.403Z,9.34
2022-09-28T18:43:15.440Z,9.43
2022-09-28T18:45:42.252Z,9.38
2022-09-28T18:48:08.935Z,9.41
2022-09-28T18:50:35.585Z,9.39
2022-09-28T18:53:14.508Z,9.26
2022-09-28T18:55:42.244Z,9.01
2022-09-28T18:58:10.117Z,9.08
2022-09-28T19:00:41.509Z,9.24
2022-09-28T19:03:11.143Z,9.24
2022-09-28T19:05:44.380Z,9.22
2022-09-28T19:08:10.972Z,9.27
2022-09-28T19:10:37.690Z,9.31
2022-09-28T19:13:04.316Z,9.21
2022-09-28T19:15:32.282Z,9.16
2022-09-28T19:17:58.966Z,9.13
2022-09-28T19:20:25.589Z,9.22
2022-09-28T19:22:52.211Z,9.30
2022-09-28T19:25:19.288Z,9.36
2022-09-28T19:27:46.345Z,9.21
2022-09-28T19:30:13.197Z,9.19
2022-09-28T19:32:39.794Z,9.23
2022-09-28T19:35:06.423Z,9.21
2022-09-28T19:37:35.505Z,9.18
2022-09-28T19:40:05.882Z,9.10
2022-09-28T19:42:32.944Z,9.23
2022-09-28T19:44:59.577Z,9.18
2022-09-28T19:47:26.160Z,8.92
2022-09-28T19:49:52.917Z,8.84
2022-09-28T19:52:19.549Z,8.78
2022-09-28T19:54:59.981Z,8.72
2022-09-28T19:57:29.601Z,8.64
2022-09-28T20:00:01.775Z,8.78
2022-09-28T20:02:29.036Z,8.82
2022-09-28T20:04:55.748Z,8.88
2022-09-28T20:07:22.339Z,8.90
2022-09-28T20:09:48.973Z,8.72
2022-09-28T20:12:15.593Z,8.79
2022-09-28T20:14:42.190Z,8.89
2022-09-28T20:17:09.542Z,8.98
2022-09-28T20:19:36.204Z,8.84
2022-09-28T20:22:03.294Z,8.82
2022-09-28T20:24:31.383Z,8.96
2022-09-28T20:26:58.276Z,9.07
2022-09-28T20:29:24.997Z,9.02
2022-09-28T20:31:52.033Z,9.04
2022-09-28T20:34:18.891Z,9.13
2022-09-28T20:36:45.648Z,9.13
2022-09-28T20:39:13.320Z,9.12
2022-09-28T20:41:40.384Z,9.07
2022-09-28T20:44:07.425Z,9.15
2022-09-28T20:46:35.482Z,9.08
2022-09-28T20:49:02.594Z,9.07
2022-09-28T20:51:29.223Z,8.99
2022-09-28T20:53:57.678Z,8.99
2022-09-28T20:56:29.385Z,8.99
2022-09-28T20:58:56.979Z,9.02
2022-09-28T21:01:30.671Z,9.11
2022-09-28T21:03:59.129Z,9.04
2022-09-28T21:06:28.790Z,9.03
2022-09-28T21:08:55.482Z,8.93
2022-09-28T21:11:23.694Z,8.96
2022-09-28T21:13:55.187Z,8.93
2022-09-28T21:16:21.817Z,8.95
2022-09-28T21:18:48.462Z,8.99
2022-09-28T21:21:17.684Z,8.69
2022-09-28T21:23:47.961Z,8.74
2022-09-28T21:26:18.960Z,8.73
2022-09-28T21:28:46.092Z,8.83
2022-09-28T21:31:12.986Z,8.87
2022-09-28T21:33:39.653Z,8.90
2022-09-28T21:36:07.829Z,8.88
2022-09-28T21:38:34.827Z,8.92
2022-09-28T21:41:01.761Z,8.86
2022-09-28T21:43:29.860Z,8.90
2022-09-28T21:45:57.735Z,8.93
2022-09-28T21:48:26.797Z,8.95
2022-09-28T21:51:00.263Z,8.85
2022-09-28T21:53:29.263Z,8.82
2022-09-28T21:55:57.020Z,8.84
2022-09-28T21:58:25.887Z,8.92
2022-09-28T22:00:58.268Z,8.89
2022-09-28T22:03:25.860Z,8.85
2022-09-28T22:05:52.553Z,8.85
2022-09-28T22:08:20.169Z,8.89
2022-09-28T22:10:51.693Z,8.88
2022-09-28T22:13:18.320Z,8.86
2022-09-28T22:15:44.940Z,8.89
2022-09-28T22:18:11.645Z,8.91
2022-09-28T22:20:38.232Z,8.85
2022-09-28T22:23:04.879Z,8.87
2022-09-28T22:25:31.519Z,8.87
2022-09-28T22:27:58.130Z,8.82
2022-09-28T22:30:24.763Z,8.78
2022-09-28T22:32:51.421Z,8.68
2022-09-28T22:35:18.056Z,8.79
2022-09-28T22:37:44.739Z,8.83
2022-09-28T22:40:12.906Z,8.74
2022-09-28T22:42:39.745Z,8.89
2022-09-28T22:45:06.849Z,8.92
2022-09-28T22:47:33.515Z,8.96
2022-09-28T22:50:00.476Z,8.99
2022-09-28T22:52:27.138Z,9.00
2022-09-28T22:54:54.003Z,9.01
2022-09-28T22:57:20.646Z,9.03
2022-09-28T22:59:47.256Z,9.04
2022-09-28T23:02:13.896Z,9.00
2022-09-28T23:04:40.498Z,8.99
2022-09-28T23:07:07.133Z,9.01
2022-09-28T23:09:33.741Z,8.86
2022-09-28T23:12:00.543Z,8.83
2022-09-28T23:14:27.200Z,8.81
2022-09-28T23:16:53.835Z,8.90
2022-09-28T23:19:20.598Z,8.89
2022-09-28T23:21:47.407Z,8.88
2022-09-28T23:24:14.040Z,8.98
2022-09-28T23:26:40.819Z,8.99
2022-09-28T23:29:07.450Z,8.94
2022-09-28T23:31:34.281Z,9.04
2022-09-28T23:34:03.266Z,9.00
2022-09-28T23:36:30.157Z,9.03
2022-09-28T23:38:56.970Z,8.99
2022-09-28T23:41:23.755Z,8.91
2022-09-28T23:43:50.435Z,8.92
2022-09-28T23:46:20.719Z,8.85
2022-09-28T23:48:48.328Z,8.83
2022-09-28T23:51:14.972Z,8.79
2022-09-28T23:53:41.612Z,8.82
2022-09-28T23:56:08.253Z,8.82
2022-09-28T23:58:34.903Z,8.85
